createdAt,value
2018-11-06T00:00:16.966Z,73.75
2018-11-06T00:02:47.151Z,74.12
2018-11-06T00:05:17.972Z,73.85
2018-11-06T00:07:47.050Z,74.14
2018-11-06T00:10:16.202Z,74.04
2018-11-06T00:12:45.331Z,74.13
2018-11-06T00:15:14.485Z,73.86
2018-11-06T00:17:43.649Z,73.98
2018-11-06T00:20:13.880Z,74.17
2018-11-06T00:22:43.025Z,73.88
2018-11-06T00:25:13.099Z,74.20
2018-11-06T00:27:42.273Z,74.19
2018-11-06T00:30:13.647Z,74.26
2018-11-06T00:32:43.334Z,74.13
2018-11-06T00:35:14.575Z,74.00
2018-11-06T00:37:44.637Z,73.96
2018-11-06T00:40:13.989Z,74.19
2018-11-06T00:42:43.124Z,74.07
2018-11-06T00:45:14.545Z,74.24
2018-11-06T00:47:43.715Z,74.44
2018-11-06T00:50:13.892Z,74.54
2018-11-06T00:52:43.880Z,74.36
2018-11-06T00:55:13.039Z,74.91
2018-11-06T00:57:43.405Z,74.87
2018-11-06T01:00:15.109Z,75.19
2018-11-06T01:02:44.338Z,75.01
2018-11-06T01:05:14.152Z,75.28
2018-11-06T01:07:43.947Z,75.55
2018-11-06T01:10:13.080Z,75.42
2018-11-06T01:12:42.216Z,75.52
2018-11-06T01:15:13.638Z,75.71
2018-11-06T01:17:43.793Z,75.74
2018-11-06T01:20:15.300Z,75.75
2018-11-06T01:22:44.710Z,75.55
2018-11-06T01:25:14.239Z,75.50
2018-11-06T01:27:43.381Z,75.40
2018-11-06T01:30:16.286Z,75.72
2018-11-06T01:32:46.015Z,75.60
2018-11-06T01:35:15.814Z,75.58
2018-11-06T01:37:45.605Z,75.99
2018-11-06T01:40:15.869Z,75.89
2018-11-06T01:42:45.535Z,75.90
2018-11-06T01:45:15.683Z,75.76
2018-11-06T01:47:44.831Z,75.67
2018-11-06T01:50:15.014Z,75.94
2018-11-06T01:52:45.218Z,75.86
2018-11-06T01:55:14.398Z,75.80
2018-11-06T01:57:43.539Z,75.82
2018-11-06T02:00:15.312Z,75.67
2018-11-06T02:02:44.447Z,75.75
2018-11-06T02:05:14.791Z,75.77
2018-11-06T02:07:45.289Z,75.65
2018-11-06T02:10:15.152Z,75.82
2018-11-06T02:12:45.216Z,75.94
2018-11-06T02:15:14.416Z,75.99
2018-11-06T02:17:44.367Z,76.08
2018-11-06T02:20:14.175Z,76.09
2018-11-06T02:22:44.155Z,76.32
2018-11-06T02:25:13.779Z,76.13
2018-11-06T02:27:49.736Z,76.09
2018-11-06T02:30:18.861Z,76.11
2018-11-06T02:32:48.270Z,76.16
2018-11-06T02:35:17.371Z,76.35
2018-11-06T02:37:46.512Z,76.16
2018-11-06T02:40:16.443Z,76.13
2018-11-06T02:42:45.587Z,76.14
2018-11-06T02:45:14.958Z,75.81
2018-11-06T02:47:44.489Z,76.11
2018-11-06T02:50:14.507Z,76.20
2018-11-06T02:52:44.179Z,76.33
2018-11-06T02:55:13.702Z,76.07
2018-11-06T02:57:43.345Z,76.35
2018-11-06T03:00:15.099Z,76.33
2018-11-06T03:02:44.866Z,75.96
2018-11-06T03:05:14.001Z,76.06
2018-11-06T03:07:43.168Z,76.28
2018-11-06T03:10:13.115Z,76.45
2018-11-06T03:12:43.240Z,76.43
2018-11-06T03:15:13.614Z,76.50
2018-11-06T03:17:42.799Z,76.46
2018-11-06T03:20:12.654Z,76.66
2018-11-06T03:22:42.218Z,76.73
2018-11-06T03:25:11.655Z,76.62
2018-11-06T03:27:40.758Z,76.68
2018-11-06T03:30:13.350Z,76.95
2018-11-06T03:32:42.553Z,76.50
2018-11-06T03:35:12.951Z,76.96
2018-11-06T03:37:42.146Z,76.75
2018-11-06T03:40:11.743Z,76.75
2018-11-06T03:42:41.770Z,76.87
2018-11-06T03:45:11.783Z,76.75
2018-11-06T03:47:40.919Z,77.02
2018-11-06T03:50:11.522Z,76.96
2018-11-06T03:52:40.688Z,77.11
2018-11-06T03:55:10.107Z,77.02
2018-11-06T03:57:39.217Z,77.04
2018-11-06T04:00:11.663Z,77.00
2018-11-06T04:02:41.108Z,77.27
2018-11-06T04:05:10.604Z,77.43
2018-11-06T04:07:39.784Z,77.38
2018-11-06T04:10:10.215Z,77.23
2018-11-06T04:12:40.036Z,77.37
2018-11-06T04:15:09.592Z,77.23
2018-11-06T04:17:38.831Z,77.51
2018-11-06T04:20:08.845Z,77.32
2018-11-06T04:22:38.021Z,77.53
2018-11-06T04:25:07.685Z,77.46
2018-11-06T04:27:36.851Z,77.60
2018-11-06T04:30:08.974Z,77.76
2018-11-06T04:32:38.112Z,77.66
2018-11-06T04:35:07.886Z,77.70
2018-11-06T04:37:37.224Z,77.78
2018-11-06T04:40:08.466Z,78.16
2018-11-06T04:42:37.599Z,77.80
2018-11-06T04:45:07.366Z,77.95
2018-11-06T04:47:36.537Z,77.93
2018-11-06T04:50:05.920Z,78.31
2018-11-06T04:52:35.012Z,77.99
2018-11-06T04:55:04.210Z,78.09
2018-11-06T04:57:33.337Z,78.09
2018-11-06T05:00:02.435Z,77.97
2018-11-06T05:02:31.556Z,78.08
2018-11-06T05:05:00.687Z,77.92
2018-11-06T05:07:29.846Z,78.03
2018-11-06T05:09:58.927Z,77.95
2018-11-06T05:12:28.050Z,77.91
2018-11-06T05:14:57.228Z,77.85
2018-11-06T05:17:27.201Z,77.80
2018-11-06T05:19:56.347Z,77.76
2018-11-06T05:22:25.542Z,77.77
2018-11-06T05:24:54.695Z,77.41
2018-11-06T05:27:23.873Z,77.43
2018-11-06T05:29:52.919Z,77.53
2018-11-06T05:32:22.059Z,77.49
2018-11-06T05:34:51.274Z,77.57
2018-11-06T05:37:20.365Z,77.66
2018-11-06T05:40:06.745Z,77.41
2018-11-06T05:42:35.882Z,77.42
2018-11-06T05:45:05.043Z,77.42
2018-11-06T05:47:34.185Z,77.21
2018-11-06T05:50:03.325Z,77.56
2018-11-06T05:52:32.448Z,77.53
2018-11-06T05:55:01.599Z,77.49
2018-11-06T05:57:30.685Z,77.43
2018-11-06T05:59:59.797Z,77.52
2018-11-06T06:02:29.022Z,77.39
2018-11-06T06:04:58.102Z,77.39
2018-11-06T06:07:27.281Z,77.29
2018-11-06T06:09:56.403Z,77.23
2018-11-06T06:12:25.547Z,77.06
2018-11-06T06:14:54.701Z,77.20
2018-11-06T06:17:23.997Z,76.80
2018-11-06T06:19:53.168Z,76.95
2018-11-06T06:22:22.277Z,77.03
2018-11-06T06:24:51.418Z,76.78
2018-11-06T06:27:20.553Z,77.19
2018-11-06T06:29:49.670Z,76.75
2018-11-06T06:32:18.798Z,77.01
2018-11-06T06:34:47.955Z,76.98
2018-11-06T06:37:17.021Z,76.80
2018-11-06T06:39:46.206Z,76.49
2018-11-06T06:42:15.333Z,76.36
2018-11-06T06:44:44.522Z,76.55
2018-11-06T06:47:13.655Z,76.54
2018-11-06T06:49:42.765Z,76.72
2018-11-06T06:52:11.910Z,76.67
2018-11-06T06:54:41.093Z,76.39
2018-11-06T06:57:10.179Z,76.36
2018-11-06T06:59:39.315Z,76.26
2018-11-06T07:02:08.448Z,75.82
2018-11-06T07:04:37.576Z,75.73
2018-11-06T07:07:06.870Z,75.73
2018-11-06T07:09:36.181Z,75.91
2018-11-06T07:12:05.363Z,75.50
2018-11-06T07:14:34.643Z,75.23
2018-11-06T07:17:03.771Z,75.13
2018-11-06T07:19:32.906Z,75.17
2018-11-06T07:22:02.007Z,74.91
2018-11-06T07:24:31.172Z,74.47
2018-11-06T07:27:00.294Z,74.49
2018-11-06T07:29:29.418Z,74.13
2018-11-06T07:31:58.562Z,74.14
2018-11-06T07:34:27.822Z,73.70
2018-11-06T07:36:56.910Z,73.81
2018-11-06T07:39:26.058Z,73.57
2018-11-06T07:41:55.245Z,73.12
2018-11-06T07:44:24.395Z,73.26
2018-11-06T07:46:53.521Z,72.50
2018-11-06T07:49:22.663Z,72.04
2018-11-06T07:51:51.823Z,72.06
2018-11-06T07:54:20.911Z,71.80
2018-11-06T07:56:50.053Z,71.66
2018-11-06T07:59:19.181Z,71.40
2018-11-06T08:01:55.049Z,70.83
2018-11-06T08:04:24.265Z,70.76
2018-11-06T08:06:53.319Z,70.54
2018-11-06T08:09:22.566Z,70.55
2018-11-06T08:11:51.703Z,70.34
2018-11-06T08:14:20.839Z,69.84
2018-11-06T08:16:50.029Z,69.54
2018-11-06T08:19:19.513Z,69.06
2018-11-06T08:21:48.592Z,68.58
2018-11-06T08:24:17.783Z,68.50
2018-11-06T08:26:46.882Z,68.51
2018-11-06T08:29:16.018Z,68.41
2018-11-06T08:31:45.635Z,68.09
2018-11-06T08:34:14.405Z,67.84
2018-11-06T08:36:43.578Z,67.96
2018-11-06T08:39:12.647Z,67.47
2018-11-06T08:41:41.979Z,67.35
2018-11-06T08:44:11.085Z,66.83
2018-11-06T08:46:40.245Z,65.99
2018-11-06T08:49:09.404Z,64.80
2018-11-06T08:51:39.091Z,55.96
2018-11-06T08:54:08.242Z,50.41
2018-11-06T08:56:37.370Z,46.95
2018-11-06T08:59:06.511Z,43.83
2018-11-06T09:01:35.647Z,41.62
2018-11-06T09:04:04.890Z,41.17
2018-11-06T09:06:34.004Z,41.21
2018-11-06T09:09:03.288Z,40.14
2018-11-06T09:11:32.424Z,40.71
2018-11-06T09:14:01.545Z,40.15
2018-11-06T09:16:30.730Z,40.88
2018-11-06T09:18:59.878Z,40.69
2018-11-06T09:21:29.110Z,39.20
2018-11-06T09:23:58.219Z,39.87
2018-11-06T09:26:27.333Z,39.32
2018-11-06T09:28:56.845Z,41.81
2018-11-06T09:31:27.247Z,41.42
2018-11-06T09:33:56.565Z,45.77
2018-11-06T09:36:25.878Z,48.47
2018-11-06T09:38:55.033Z,51.15
2018-11-06T09:41:24.613Z,54.21
2018-11-06T09:43:53.859Z,55.29
2018-11-06T09:46:23.458Z,56.15
2018-11-06T09:48:52.598Z,57.29
2018-11-06T09:51:21.750Z,57.70
2018-11-06T09:53:50.861Z,57.49
2018-11-06T09:56:20.020Z,57.95
2018-11-06T09:58:49.162Z,58.47
2018-11-06T10:01:18.280Z,58.60
2018-11-06T10:03:47.519Z,58.60
2018-11-06T10:06:16.719Z,58.85
2018-11-06T10:08:45.790Z,58.70
2018-11-06T10:11:14.935Z,59.54
2018-11-06T10:13:44.042Z,58.92
2018-11-06T10:16:13.190Z,59.43
2018-11-06T10:18:42.459Z,59.68
2018-11-06T10:21:11.556Z,59.20
2018-11-06T10:23:40.715Z,59.39
2018-11-06T10:26:09.911Z,59.60
2018-11-06T10:28:39.005Z,59.05
2018-11-06T10:31:08.151Z,58.92
2018-11-06T10:33:37.269Z,59.16
2018-11-06T10:36:06.544Z,59.30
2018-11-06T10:38:35.643Z,58.78
2018-11-06T10:41:04.787Z,59.00
2018-11-06T10:43:33.988Z,59.09
2018-11-06T10:46:03.118Z,58.74
2018-11-06T10:48:32.248Z,59.13
2018-11-06T10:51:01.437Z,59.09
2018-11-06T10:53:30.603Z,59.10
2018-11-06T10:55:59.685Z,58.62
2018-11-06T10:58:28.777Z,58.96
2018-11-06T11:01:03.179Z,59.02
2018-11-06T11:03:38.934Z,58.94
2018-11-06T11:06:08.046Z,58.87
2018-11-06T11:08:37.191Z,58.82
2018-11-06T11:11:06.395Z,58.79
2018-11-06T11:13:35.573Z,58.24
2018-11-06T11:16:04.696Z,58.04
2018-11-06T11:18:33.859Z,58.17
2018-11-06T11:21:03.130Z,57.83
2018-11-06T11:23:32.246Z,57.25
2018-11-06T11:26:01.378Z,57.14
2018-11-06T11:28:30.507Z,56.93
2018-11-06T11:31:00.093Z,56.80
2018-11-06T11:33:29.248Z,56.36
2018-11-06T11:35:58.383Z,55.79
2018-11-06T11:38:27.531Z,56.21
2018-11-06T11:40:56.659Z,55.76
2018-11-06T11:43:25.774Z,55.68
2018-11-06T11:45:54.937Z,55.18
2018-11-06T11:48:23.966Z,54.46
2018-11-06T11:50:53.178Z,54.64
2018-11-06T11:53:22.319Z,53.95
2018-11-06T11:55:51.391Z,54.02
2018-11-06T11:58:20.539Z,53.72
2018-11-06T12:00:49.667Z,53.72
2018-11-06T12:03:18.838Z,53.52
2018-11-06T12:05:47.962Z,53.29
2018-11-06T12:08:17.068Z,53.01
2018-11-06T12:10:46.221Z,52.77
2018-11-06T12:13:15.321Z,52.30
2018-11-06T12:15:44.452Z,51.37
2018-11-06T12:18:13.623Z,51.79
2018-11-06T12:20:42.678Z,51.25
2018-11-06T12:23:11.817Z,50.92
2018-11-06T12:25:41.101Z,50.69
2018-11-06T12:28:10.116Z,50.77
2018-11-06T12:30:39.283Z,50.60
2018-11-06T12:33:08.401Z,50.68
2018-11-06T12:35:37.478Z,50.96
2018-11-06T12:38:06.627Z,50.27
2018-11-06T12:40:35.728Z,49.62
2018-11-06T12:43:04.860Z,49.42
2018-11-06T12:45:33.947Z,49.04
2018-11-06T12:48:03.106Z,49.69
2018-11-06T12:50:32.266Z,49.24
2018-11-06T12:53:01.389Z,49.10
2018-11-06T12:55:30.511Z,49.19
2018-11-06T12:57:59.671Z,49.22
2018-11-06T13:00:28.842Z,49.04
2018-11-06T13:02:57.971Z,48.99
2018-11-06T13:05:27.073Z,49.35
2018-11-06T13:07:56.187Z,49.50
2018-11-06T13:10:25.365Z,49.50
2018-11-06T13:12:54.460Z,49.40
2018-11-06T13:15:23.625Z,49.75
2018-11-06T13:17:52.741Z,49.82
2018-11-06T13:20:21.855Z,50.49
2018-11-06T13:22:50.991Z,50.67
2018-11-06T13:25:20.080Z,51.02
2018-11-06T13:27:49.198Z,51.48
2018-11-06T13:30:19.271Z,51.50
2018-11-06T13:32:49.090Z,51.82
2018-11-06T13:35:18.228Z,51.54
2018-11-06T13:37:47.373Z,52.10
2018-11-06T13:40:17.067Z,52.58
2018-11-06T13:42:46.724Z,52.12
2018-11-06T13:45:18.600Z,51.87
2018-11-06T13:47:47.673Z,51.30
2018-11-06T13:50:16.799Z,51.07
2018-11-06T13:52:45.925Z,51.34
2018-11-06T13:55:15.866Z,51.42
2018-11-06T13:57:45.860Z,51.15
2018-11-06T14:00:17.451Z,50.42
2018-11-06T14:02:46.709Z,50.84
2018-11-06T14:05:16.025Z,51.36
2018-11-06T14:07:45.331Z,51.66
2018-11-06T14:10:14.462Z,51.15
2018-11-06T14:12:44.468Z,51.13
2018-11-06T14:15:13.610Z,51.35
2018-11-06T14:17:42.730Z,51.67
2018-11-06T14:20:13.254Z,52.22
2018-11-06T14:22:42.561Z,52.51
2018-11-06T14:25:11.668Z,52.69
2018-11-06T14:27:40.859Z,52.88
2018-11-06T14:30:16.692Z,52.43
2018-11-06T14:32:46.215Z,52.90
2018-11-06T14:35:16.349Z,53.55
2018-11-06T14:37:46.068Z,53.63
2018-11-06T14:40:15.998Z,53.98
2018-11-06T14:42:46.040Z,54.33
2018-11-06T14:45:16.285Z,54.85
2018-11-06T14:47:45.460Z,54.98
2018-11-06T14:50:14.695Z,55.47
2018-11-06T14:52:43.809Z,55.76
2018-11-06T14:55:14.328Z,55.93
2018-11-06T14:57:43.440Z,56.30
2018-11-06T15:00:16.289Z,56.64
2018-11-06T15:02:46.845Z,56.75
2018-11-06T15:05:16.421Z,57.06
2018-11-06T15:07:45.608Z,57.29
2018-11-06T15:10:14.782Z,57.95
2018-11-06T15:12:44.256Z,58.26
2018-11-06T15:15:13.950Z,58.96
2018-11-06T15:17:44.283Z,59.27
2018-11-06T15:20:15.192Z,59.60
2018-11-06T15:22:44.685Z,59.84
2018-11-06T15:25:14.510Z,59.99
2018-11-06T15:27:43.639Z,60.04
2018-11-06T15:30:14.142Z,60.61
2018-11-06T15:32:43.333Z,60.74
2018-11-06T15:35:14.696Z,61.09
2018-11-06T15:37:43.855Z,61.03
2018-11-06T15:40:15.548Z,61.38
2018-11-06T15:42:44.835Z,61.61
2018-11-06T15:45:15.170Z,62.16
2018-11-06T15:47:45.217Z,62.43
2018-11-06T15:50:15.792Z,62.84
2018-11-06T15:52:45.739Z,63.32
2018-11-06T15:55:14.889Z,63.28
2018-11-06T15:57:44.033Z,63.28
2018-11-06T16:00:16.505Z,63.68
2018-11-06T16:02:45.935Z,63.97
2018-11-06T16:05:15.093Z,64.37
2018-11-06T16:07:44.273Z,64.79
2018-11-06T16:10:16.795Z,64.79
2018-11-06T16:12:46.176Z,64.98
2018-11-06T16:15:15.330Z,65.52
2018-11-06T16:17:44.730Z,65.54
2018-11-06T16:20:15.164Z,65.79
2018-11-06T16:22:44.636Z,67.11
2018-11-06T16:25:15.063Z,66.86
2018-11-06T16:27:44.640Z,66.14
2018-11-06T16:30:15.606Z,65.79
2018-11-06T16:32:44.840Z,66.03
2018-11-06T16:35:15.324Z,65.99
2018-11-06T16:37:44.929Z,66.73
2018-11-06T16:40:14.849Z,66.59
2018-11-06T16:42:44.774Z,66.43
2018-11-06T16:45:16.472Z,66.53
2018-11-06T16:47:46.637Z,66.28
2018-11-06T16:50:16.750Z,66.69
2018-11-06T16:52:45.954Z,66.65
2018-11-06T16:55:15.530Z,66.70
2018-11-06T16:57:45.153Z,66.64
2018-11-06T17:00:16.994Z,66.52
2018-11-06T17:02:46.216Z,66.67
2018-11-06T17:05:15.838Z,66.86
2018-11-06T17:07:45.321Z,67.03
2018-11-06T17:10:15.447Z,66.90
2018-11-06T17:12:44.596Z,67.25
2018-11-06T17:15:16.231Z,67.36
2018-11-06T17:17:46.045Z,67.65
2018-11-06T17:20:15.722Z,67.69
2018-11-06T17:22:44.830Z,67.82
2018-11-06T17:25:16.332Z,67.86
2018-11-06T17:27:45.447Z,67.89
2018-11-06T17:30:16.824Z,67.90
2018-11-06T17:32:46.065Z,67.97
2018-11-06T17:35:16.530Z,68.12
2018-11-06T17:37:45.993Z,68.28
2018-11-06T17:40:20.375Z,68.33
2018-11-06T17:42:49.529Z,68.18
2018-11-06T17:45:21.186Z,67.99
2018-11-06T17:47:50.327Z,67.95
2018-11-06T17:50:19.579Z,68.21
2018-11-06T17:52:48.750Z,68.50
2018-11-06T17:55:19.266Z,68.27
2018-11-06T17:57:48.347Z,68.41
2018-11-06T18:00:19.806Z,68.64
2018-11-06T18:02:48.949Z,68.71
2018-11-06T18:05:19.324Z,68.72
2018-11-06T18:07:48.445Z,69.23
2018-11-06T18:10:18.908Z,69.64
2018-11-06T18:12:47.981Z,69.21
2018-11-06T18:15:17.121Z,69.54
2018-11-06T18:17:46.421Z,69.47
2018-11-06T18:20:15.931Z,70.04
2018-11-06T18:22:45.609Z,70.40
2018-11-06T18:25:15.021Z,70.41
2018-11-06T18:27:44.084Z,70.46
2018-11-06T18:30:15.820Z,70.53
2018-11-06T18:32:44.918Z,70.66
2018-11-06T18:35:15.104Z,71.11
2018-11-06T18:37:44.212Z,71.55
2018-11-06T18:40:16.452Z,71.23
2018-11-06T18:42:46.484Z,71.23
2018-11-06T18:45:15.948Z,71.27
2018-11-06T18:47:45.174Z,71.01
2018-11-06T18:50:15.501Z,71.24
2018-11-06T18:52:45.882Z,71.25
2018-11-06T18:55:14.991Z,71.04
2018-11-06T18:57:44.333Z,71.15
2018-11-06T19:00:15.337Z,70.90
2018-11-06T19:02:45.789Z,71.27
2018-11-06T19:05:15.522Z,71.26
2018-11-06T19:07:44.629Z,71.69
2018-11-06T19:10:14.767Z,71.91
2018-11-06T19:12:44.172Z,72.00
2018-11-06T19:15:16.622Z,72.12
2018-11-06T19:17:46.442Z,72.59
2018-11-06T19:20:15.952Z,72.71
2018-11-06T19:22:45.115Z,72.77
2018-11-06T19:25:14.861Z,72.30
2018-11-06T19:27:44.217Z,72.56
2018-11-06T19:30:15.527Z,72.77
2018-11-06T19:32:44.608Z,72.52
2018-11-06T19:35:13.789Z,72.49
2018-11-06T19:37:43.060Z,71.74
2018-11-06T19:40:13.669Z,71.59
2018-11-06T19:42:43.601Z,71.35
2018-11-06T19:45:13.253Z,71.11
2018-11-06T19:47:42.392Z,71.07
2018-11-06T19:50:13.536Z,70.70
2018-11-06T19:52:42.635Z,70.62
2018-11-06T19:55:13.010Z,70.64
2018-11-06T19:57:42.128Z,70.70
2018-11-06T20:00:17.925Z,70.92
2018-11-06T20:02:48.218Z,70.55
2018-11-06T20:05:18.417Z,70.41
2018-11-06T20:07:48.613Z,70.41
2018-11-06T20:10:19.848Z,70.36
2018-11-06T20:12:49.893Z,70.43
2018-11-06T20:15:19.058Z,70.55
2018-11-06T20:17:48.336Z,70.66
2018-11-06T20:20:23.236Z,70.64
2018-11-06T20:22:52.395Z,70.75
2018-11-06T20:25:21.516Z,70.92
2018-11-06T20:27:51.253Z,70.78
2018-11-06T20:30:22.792Z,70.79
2018-11-06T20:32:51.876Z,71.41
2018-11-06T20:35:21.000Z,71.00
2018-11-06T20:37:50.144Z,71.03
2018-11-06T20:40:20.674Z,71.09
2018-11-06T20:42:49.899Z,71.89
2018-11-06T20:45:19.671Z,72.03
2018-11-06T20:47:48.798Z,71.98
2018-11-06T20:50:22.774Z,72.27
2018-11-06T20:52:51.948Z,71.89
2018-11-06T20:55:21.207Z,71.96
2018-11-06T20:57:50.389Z,71.76
2018-11-06T21:00:22.672Z,72.04
2018-11-06T21:02:52.882Z,73.19
2018-11-06T21:05:22.011Z,72.97
2018-11-06T21:07:51.269Z,72.87
2018-11-06T21:10:22.068Z,73.00
2018-11-06T21:12:51.186Z,72.87
2018-11-06T21:15:20.287Z,73.06
2018-11-06T21:17:49.420Z,73.67
2018-11-06T21:20:18.890Z,73.85
2018-11-06T21:22:47.950Z,74.40
2018-11-06T21:25:17.136Z,74.74
2018-11-06T21:27:46.364Z,75.16
2018-11-06T21:30:17.250Z,75.07
2018-11-06T21:32:47.718Z,75.15
2018-11-06T21:35:16.898Z,75.19
2018-11-06T21:37:46.028Z,75.19
2018-11-06T21:40:17.296Z,75.44
2018-11-06T21:42:46.907Z,75.33
2018-11-06T21:45:16.631Z,75.60
2018-11-06T21:47:46.508Z,75.54
2018-11-06T21:50:16.476Z,75.61
2018-11-06T21:52:45.632Z,75.47
2018-11-06T21:55:15.953Z,75.75
2018-11-06T21:57:45.181Z,75.51
2018-11-06T22:00:16.825Z,75.32
2018-11-06T22:02:45.882Z,75.45
2018-11-06T22:05:16.347Z,75.61
2018-11-06T22:07:45.620Z,75.34
2018-11-06T22:10:15.970Z,75.43
2018-11-06T22:12:45.633Z,75.44
2018-11-06T22:15:16.019Z,75.31
2018-11-06T22:17:45.152Z,75.36
2018-11-06T22:20:15.589Z,75.31
2018-11-06T22:22:45.233Z,75.15
2018-11-06T22:25:14.337Z,75.27
2018-11-06T22:27:43.657Z,75.35
2018-11-06T22:30:14.360Z,75.22
2018-11-06T22:32:44.015Z,74.85
2018-11-06T22:35:14.282Z,75.02
2018-11-06T22:37:43.485Z,75.01
2018-11-06T22:40:13.831Z,75.22
2018-11-06T22:42:42.926Z,75.23
2018-11-06T22:45:13.558Z,75.26
2018-11-06T22:47:42.945Z,75.39
2018-11-06T22:50:16.336Z,75.31
2018-11-06T22:52:46.279Z,75.46
2018-11-06T22:55:15.593Z,75.54
2018-11-06T22:57:44.946Z,75.25
2018-11-06T23:00:16.966Z,75.37
2018-11-06T23:02:46.070Z,75.36
2018-11-06T23:05:15.514Z,75.23
2018-11-06T23:07:49.899Z,75.15
2018-11-06T23:10:19.013Z,75.08
2018-11-06T23:12:48.129Z,75.07
2018-11-06T23:15:17.230Z,75.31
2018-11-06T23:17:46.324Z,75.02
2018-11-06T23:20:15.466Z,75.20
2018-11-06T23:22:44.593Z,75.12
2018-11-06T23:25:13.774Z,75.47
2018-11-06T23:27:43.105Z,75.49
2018-11-06T23:30:14.096Z,75.37
2018-11-06T23:32:43.438Z,75.34
2018-11-06T23:35:12.522Z,75.88
2018-11-06T23:37:41.645Z,76.17
2018-11-06T23:40:11.263Z,76.22
2018-11-06T23:42:40.686Z,75.99
2018-11-06T23:45:10.258Z,76.01
2018-11-06T23:47:39.392Z,76.01
2018-11-06T23:50:10.326Z,75.57
2018-11-06T23:52:39.691Z,75.71
2018-11-06T23:55:09.267Z,75.42
2018-11-06T23:57:38.352Z,75.56
